sensor_id;sensor_type;location;lat;lon;timestamp;temperature;humidity
1468;DHT22;727;48.892;9.544;2023-04-07T00:01:32;7.60;99.90
1468;DHT22;727;48.892;9.544;2023-04-07T00:03:59;7.60;99.90
1468;DHT22;727;48.892;9.544;2023-04-07T00:06:26;7.60;99.90
1468;DHT22;727;48.892;9.544;2023-04-07T00:08:54;7.50;99.90
1468;DHT22;727;48.892;9.544;2023-04-07T00:11:21;7.50;99.90
1468;DHT22;727;48.892;9.544;2023-04-07T00:13:47;7.50;99.90
1468;DHT22;727;48.892;9.544;2023-04-07T00:16:14;7.40;99.90
1468;DHT22;727;48.892;9.544;2023-04-07T00:18:41;7.40;99.90
1468;DHT22;727;48.892;9.544;2023-04-07T00:21:07;7.40;99.90
1468;DHT22;727;48.892;9.544;2023-04-07T00:23:34;7.40;99.90
1468;DHT22;727;48.892;9.544;2023-04-07T00:26:02;7.30;99.90
1468;DHT22;727;48.892;9.544;2023-04-07T00:28:29;7.30;99.90
1468;DHT22;727;48.892;9.544;2023-04-07T00:30:55;7.30;99.90
1468;DHT22;727;48.892;9.544;2023-04-07T00:33:22;7.20;99.90
1468;DHT22;727;48.892;9.544;2023-04-07T00:35:49;7.20;99.90
1468;DHT22;727;48.892;9.544;2023-04-07T00:38:15;7.20;99.90
1468;DHT22;727;48.892;9.544;2023-04-07T00:40:42;7.10;99.90
1468;DHT22;727;48.892;9.544;2023-04-07T00:43:10;7.10;99.90
1468;DHT22;727;48.892;9.544;2023-04-07T00:45:37;7.10;99.90
1468;DHT22;727;48.892;9.544;2023-04-07T00:48:04;7.00;99.90
1468;DHT22;727;48.892;9.544;2023-04-07T00:50:31;7.00;99.90
1468;DHT22;727;48.892;9.544;2023-04-07T00:52:58;7.00;99.90
1468;DHT22;727;48.892;9.544;2023-04-07T00:55:26;7.00;99.90
1468;DHT22;727;48.892;9.544;2023-04-07T00:57:53;7.00;99.90
1468;DHT22;727;48.892;9.544;2023-04-07T01:00:21;7.00;99.90
1468;DHT22;727;48.892;9.544;2023-04-07T01:02:55;7.00;99.90
1468;DHT22;727;48.892;9.544;2023-04-07T01:05:27;7.00;99.90
1468;DHT22;727;48.892;9.544;2023-04-07T01:08:02;7.00;99.90
1468;DHT22;727;48.892;9.544;2023-04-07T01:10:36;7.00;99.90
1468;DHT22;727;48.892;9.544;2023-04-07T01:13:10;7.00;99.90
1468;DHT22;727;48.892;9.544;2023-04-07T01:15:41;6.90;99.90
1468;DHT22;727;48.892;9.544;2023-04-07T01:18:11;6.90;99.90
1468;DHT22;727;48.892;9.544;2023-04-07T01:20:39;6.90;99.90
1468;DHT22;727;48.892;9.544;2023-04-07T01:23:06;6.90;99.90
1468;DHT22;727;48.892;9.544;2023-04-07T01:25:44;6.90;99.90
1468;DHT22;727;48.892;9.544;2023-04-07T01:28:32;6.90;99.90
1468;DHT22;727;48.892;9.544;2023-04-07T01:31:04;7.00;99.90
1468;DHT22;727;48.892;9.544;2023-04-07T01:33:34;7.00;99.90
1468;DHT22;727;48.892;9.544;2023-04-07T01:36:02;6.90;99.90
1468;DHT22;727;48.892;9.544;2023-04-07T01:38:30;7.00;99.90
1468;DHT22;727;48.892;9.544;2023-04-07T01:40:59;6.90;99.90
1468;DHT22;727;48.892;9.544;2023-04-07T01:43:27;7.00;99.90
1468;DHT22;727;48.892;9.544;2023-04-07T01:45:56;6.90;99.90
1468;DHT22;727;48.892;9.544;2023-04-07T01:48:24;7.00;99.90
1468;DHT22;727;48.892;9.544;2023-04-07T01:50:52;6.90;99.90
1468;DHT22;727;48.892;9.544;2023-04-07T01:53:20;6.90;99.90
1468;DHT22;727;48.892;9.544;2023-04-07T01:55:48;6.90;99.90
1468;DHT22;727;48.892;9.544;2023-04-07T01:58:16;6.90;99.90
1468;DHT22;727;48.892;9.544;2023-04-07T02:00:42;7.00;99.90
1468;DHT22;727;48.892;9.544;2023-04-07T02:03:12;7.00;99.90
1468;DHT22;727;48.892;9.544;2023-04-07T02:05:46;6.90;99.90
1468;DHT22;727;48.892;9.544;2023-04-07T02:08:15;6.90;99.90
1468;DHT22;727;48.892;9.544;2023-04-07T02:10:45;6.90;99.90
1468;DHT22;727;48.892;9.544;2023-04-07T02:13:19;6.90;99.90
1468;DHT22;727;48.892;9.544;2023-04-07T02:15:47;6.90;99.90
1468;DHT22;727;48.892;9.544;2023-04-07T02:18:14;6.90;99.90
1468;DHT22;727;48.892;9.544;2023-04-07T02:20:43;6.90;99.90
1468;DHT22;727;48.892;9.544;2023-04-07T02:23:12;6.90;99.90
1468;DHT22;727;48.892;9.544;2023-04-07T02:25:39;6.90;99.90
1468;DHT22;727;48.892;9.544;2023-04-07T02:28:05;6.90;99.90
1468;DHT22;727;48.892;9.544;2023-04-07T02:30:33;6.90;99.90
1468;DHT22;727;48.892;9.544;2023-04-07T02:33:00;6.90;99.90
1468;DHT22;727;48.892;9.544;2023-04-07T02:35:27;6.90;99.90
1468;DHT22;727;48.892;9.544;2023-04-07T02:37:54;6.90;99.90
1468;DHT22;727;48.892;9.544;2023-04-07T02:40:22;6.90;99.90
1468;DHT22;727;48.892;9.544;2023-04-07T02:42:48;6.90;99.90
1468;DHT22;727;48.892;9.544;2023-04-07T02:45:15;6.80;99.90
1468;DHT22;727;48.892;9.544;2023-04-07T02:47:42;6.80;99.90
1468;DHT22;727;48.892;9.544;2023-04-07T02:50:09;6.90;99.90
1468;DHT22;727;48.892;9.544;2023-04-07T02:52:36;6.80;99.90
1468;DHT22;727;48.892;9.544;2023-04-07T02:55:03;6.90;99.90
1468;DHT22;727;48.892;9.544;2023-04-07T02:57:31;6.80;99.90
1468;DHT22;727;48.892;9.544;2023-04-07T02:59:57;6.80;99.90
1468;DHT22;727;48.892;9.544;2023-04-07T03:02:24;6.80;99.90
1468;DHT22;727;48.892;9.544;2023-04-07T03:04:51;6.80;99.90
1468;DHT22;727;48.892;9.544;2023-04-07T03:07:18;6.80;99.90
1468;DHT22;727;48.892;9.544;2023-04-07T03:09:45;6.80;99.90
1468;DHT22;727;48.892;9.544;2023-04-07T03:12:12;6.80;99.90
1468;DHT22;727;48.892;9.544;2023-04-07T03:14:40;6.80;99.90
1468;DHT22;727;48.892;9.544;2023-04-07T03:17:06;6.80;99.90
1468;DHT22;727;48.892;9.544;2023-04-07T03:19:33;6.70;99.90
1468;DHT22;727;48.892;9.544;2023-04-07T03:22:00;6.70;99.90
1468;DHT22;727;48.892;9.544;2023-04-07T03:24:26;6.70;99.90
1468;DHT22;727;48.892;9.544;2023-04-07T03:26:53;6.70;99.90
1468;DHT22;727;48.892;9.544;2023-04-07T03:29:20;6.70;99.90
1468;DHT22;727;48.892;9.544;2023-04-07T03:31:48;6.70;99.90
1468;DHT22;727;48.892;9.544;2023-04-07T03:34:15;6.70;99.90
1468;DHT22;727;48.892;9.544;2023-04-07T03:36:41;6.70;99.90
1468;DHT22;727;48.892;9.544;2023-04-07T03:39:08;6.70;99.90
1468;DHT22;727;48.892;9.544;2023-04-07T03:41:35;6.70;99.90
1468;DHT22;727;48.892;9.544;2023-04-07T03:44:01;6.70;99.90
1468;DHT22;727;48.892;9.544;2023-04-07T03:46:28;6.70;99.90
1468;DHT22;727;48.892;9.544;2023-04-07T03:48:56;6.70;99.90
1468;DHT22;727;48.892;9.544;2023-04-07T03:51:23;6.60;99.90
1468;DHT22;727;48.892;9.544;2023-04-07T03:53:49;6.60;99.90
1468;DHT22;727;48.892;9.544;2023-04-07T03:56:16;6.60;99.90
1468;DHT22;727;48.892;9.544;2023-04-07T03:58:43;6.60;99.90
1468;DHT22;727;48.892;9.544;2023-04-07T04:01:11;6.70;99.90
1468;DHT22;727;48.892;9.544;2023-04-07T04:03:37;6.70;99.90
1468;DHT22;727;48.892;9.544;2023-04-07T04:06:06;6.60;99.90
1468;DHT22;727;48.892;9.544;2023-04-07T04:08:33;6.70;99.90
1468;DHT22;727;48.892;9.544;2023-04-07T04:10:59;6.60;99.90
1468;DHT22;727;48.892;9.544;2023-04-07T04:13:26;6.70;99.90
1468;DHT22;727;48.892;9.544;2023-04-07T04:15:53;6.70;99.90
1468;DHT22;727;48.892;9.544;2023-04-07T04:18:19;6.70;99.90
1468;DHT22;727;48.892;9.544;2023-04-07T04:20:46;6.70;99.90
1468;DHT22;727;48.892;9.544;2023-04-07T04:23:14;6.60;99.90
1468;DHT22;727;48.892;9.544;2023-04-07T04:25:41;6.60;99.90
1468;DHT22;727;48.892;9.544;2023-04-07T04:28:08;6.60;99.90
1468;DHT22;727;48.892;9.544;2023-04-07T04:30:34;6.60;99.90
1468;DHT22;727;48.892;9.544;2023-04-07T04:33:01;6.70;99.90
1468;DHT22;727;48.892;9.544;2023-04-07T04:35:28;6.60;99.90
1468;DHT22;727;48.892;9.544;2023-04-07T04:37:55;6.60;99.90
1468;DHT22;727;48.892;9.544;2023-04-07T04:40:23;6.50;99.90
1468;DHT22;727;48.892;9.544;2023-04-07T04:42:49;6.50;99.90
1468;DHT22;727;48.892;9.544;2023-04-07T04:45:16;6.50;99.90
1468;DHT22;727;48.892;9.544;2023-04-07T04:47:43;6.50;99.90
1468;DHT22;727;48.892;9.544;2023-04-07T04:50:10;6.60;99.90
1468;DHT22;727;48.892;9.544;2023-04-07T04:52:37;6.50;99.90
1468;DHT22;727;48.892;9.544;2023-04-07T04:55:04;6.50;99.90
1468;DHT22;727;48.892;9.544;2023-04-07T04:57:32;6.50;99.90
1468;DHT22;727;48.892;9.544;2023-04-07T05:00:00;6.50;99.90
1468;DHT22;727;48.892;9.544;2023-04-07T05:02:27;6.50;99.90
1468;DHT22;727;48.892;9.544;2023-04-07T05:04:54;6.50;99.90
1468;DHT22;727;48.892;9.544;2023-04-07T05:07:20;6.50;99.90
1468;DHT22;727;48.892;9.544;2023-04-07T05:09:47;6.50;99.90
1468;DHT22;727;48.892;9.544;2023-04-07T05:12:14;6.60;99.90
1468;DHT22;727;48.892;9.544;2023-04-07T05:14:42;6.70;99.90
1468;DHT22;727;48.892;9.544;2023-04-07T05:17:09;6.70;99.90
1468;DHT22;727;48.892;9.544;2023-04-07T05:19:36;6.70;99.90
1468;DHT22;727;48.892;9.544;2023-04-07T05:22:02;6.70;99.90
1468;DHT22;727;48.892;9.544;2023-04-07T05:24:29;6.70;99.90
1468;DHT22;727;48.892;9.544;2023-04-07T05:26:56;6.60;99.90
1468;DHT22;727;48.892;9.544;2023-04-07T05:29:22;6.70;99.90
1468;DHT22;727;48.892;9.544;2023-04-07T05:31:50;6.70;99.90
1468;DHT22;727;48.892;9.544;2023-04-07T05:34:17;6.70;99.90
1468;DHT22;727;48.892;9.544;2023-04-07T05:36:44;6.70;99.90
1468;DHT22;727;48.892;9.544;2023-04-07T05:39:10;6.70;99.90
1468;DHT22;727;48.892;9.544;2023-04-07T05:41:37;6.70;99.90
1468;DHT22;727;48.892;9.544;2023-04-07T05:44:04;6.70;99.90
1468;DHT22;727;48.892;9.544;2023-04-07T05:46:31;6.70;99.90
1468;DHT22;727;48.892;9.544;2023-04-07T05:48:59;6.80;99.90
1468;DHT22;727;48.892;9.544;2023-04-07T05:51:26;6.80;99.90
1468;DHT22;727;48.892;9.544;2023-04-07T05:53:53;6.90;99.90
1468;DHT22;727;48.892;9.544;2023-04-07T05:56:19;6.90;99.90
1468;DHT22;727;48.892;9.544;2023-04-07T05:58:46;6.90;99.90
1468;DHT22;727;48.892;9.544;2023-04-07T06:01:13;6.90;99.90
1468;DHT22;727;48.892;9.544;2023-04-07T06:03:40;7.00;99.90
1468;DHT22;727;48.892;9.544;2023-04-07T06:06:09;7.00;99.90
1468;DHT22;727;48.892;9.544;2023-04-07T06:08:36;7.00;99.90
1468;DHT22;727;48.892;9.544;2023-04-07T06:11:02;7.10;99.90
1468;DHT22;727;48.892;9.544;2023-04-07T06:13:29;7.00;99.90
1468;DHT22;727;48.892;9.544;2023-04-07T06:15:56;7.00;99.90
1468;DHT22;727;48.892;9.544;2023-04-07T06:18:23;7.00;99.90
1468;DHT22;727;48.892;9.544;2023-04-07T06:20:50;7.00;99.90
1468;DHT22;727;48.892;9.544;2023-04-07T06:23:18;7.00;99.90
1468;DHT22;727;48.892;9.544;2023-04-07T06:25:44;7.10;99.90
1468;DHT22;727;48.892;9.544;2023-04-07T06:28:12;7.10;99.90
1468;DHT22;727;48.892;9.544;2023-04-07T06:30:39;7.20;99.90
1468;DHT22;727;48.892;9.544;2023-04-07T06:33:05;7.20;99.90
1468;DHT22;727;48.892;9.544;2023-04-07T06:35:32;7.20;99.90
1468;DHT22;727;48.892;9.544;2023-04-07T06:37:59;7.30;99.90
1468;DHT22;727;48.892;9.544;2023-04-07T06:40:28;7.30;99.90
1468;DHT22;727;48.892;9.544;2023-04-07T06:42:54;7.30;99.90
1468;DHT22;727;48.892;9.544;2023-04-07T06:45:21;7.40;99.90
1468;DHT22;727;48.892;9.544;2023-04-07T06:47:48;7.40;99.90
1468;DHT22;727;48.892;9.544;2023-04-07T06:50:14;7.50;99.90
1468;DHT22;727;48.892;9.544;2023-04-07T06:52:45;7.50;99.90
1468;DHT22;727;48.892;9.544;2023-04-07T06:55:11;7.50;99.90
1468;DHT22;727;48.892;9.544;2023-04-07T06:57:39;7.50;99.90
1468;DHT22;727;48.892;9.544;2023-04-07T07:00:07;7.60;99.90
1468;DHT22;727;48.892;9.544;2023-04-07T07:02:34;7.60;99.90
1468;DHT22;727;48.892;9.544;2023-04-07T07:05:01;7.80;99.90
1468;DHT22;727;48.892;9.544;2023-04-07T07:07:29;7.80;99.90
1468;DHT22;727;48.892;9.544;2023-04-07T07:09:55;7.90;99.90
1468;DHT22;727;48.892;9.544;2023-04-07T07:12:22;8.10;99.90
1468;DHT22;727;48.892;9.544;2023-04-07T07:14:50;8.20;99.90
1468;DHT22;727;48.892;9.544;2023-04-07T07:17:17;8.40;99.90
1468;DHT22;727;48.892;9.544;2023-04-07T07:19:43;8.50;99.90
1468;DHT22;727;48.892;9.544;2023-04-07T07:22:10;8.70;99.90
1468;DHT22;727;48.892;9.544;2023-04-07T07:24:37;8.90;99.90
1468;DHT22;727;48.892;9.544;2023-04-07T07:27:03;9.00;99.90
1468;DHT22;727;48.892;9.544;2023-04-07T07:29:30;9.20;99.90
1468;DHT22;727;48.892;9.544;2023-04-07T07:31:58;9.30;99.90
1468;DHT22;727;48.892;9.544;2023-04-07T07:34:25;9.40;99.90
1468;DHT22;727;48.892;9.544;2023-04-07T07:36:52;9.50;99.90
1468;DHT22;727;48.892;9.544;2023-04-07T07:39:19;9.60;99.90
1468;DHT22;727;48.892;9.544;2023-04-07T07:41:45;9.80;99.90
1468;DHT22;727;48.892;9.544;2023-04-07T07:44:12;9.90;99.90
1468;DHT22;727;48.892;9.544;2023-04-07T07:46:39;10.10;99.90
1468;DHT22;727;48.892;9.544;2023-04-07T07:49:07;10.10;99.90
1468;DHT22;727;48.892;9.544;2023-04-07T07:51:34;10.20;99.90
1468;DHT22;727;48.892;9.544;2023-04-07T07:54:00;10.30;99.90
1468;DHT22;727;48.892;9.544;2023-04-07T07:56:27;10.40;99.90
1468;DHT22;727;48.892;9.544;2023-04-07T07:58:54;10.40;99.90
1468;DHT22;727;48.892;9.544;2023-04-07T08:01:21;10.70;99.90
1468;DHT22;727;48.892;9.544;2023-04-07T08:03:47;11.20;99.90
1468;DHT22;727;48.892;9.544;2023-04-07T08:06:16;11.70;99.90
1468;DHT22;727;48.892;9.544;2023-04-07T08:08:43;12.00;99.90
1468;DHT22;727;48.892;9.544;2023-04-07T08:11:10;12.30;99.90
1468;DHT22;727;48.892;9.544;2023-04-07T08:13:36;12.40;99.90
1468;DHT22;727;48.892;9.544;2023-04-07T08:16:04;12.50;99.90
1468;DHT22;727;48.892;9.544;2023-04-07T08:18:31;12.60;99.90
1468;DHT22;727;48.892;9.544;2023-04-07T08:20:58;12.80;99.90
1468;DHT22;727;48.892;9.544;2023-04-07T08:23:26;13.00;99.90
1468;DHT22;727;48.892;9.544;2023-04-07T08:25:53;12.80;99.30
1468;DHT22;727;48.892;9.544;2023-04-07T08:28:20;12.90;99.80
1468;DHT22;727;48.892;9.544;2023-04-07T08:30:47;13.10;99.90
1468;DHT22;727;48.892;9.544;2023-04-07T08:33:14;13.40;99.90
1468;DHT22;727;48.892;9.544;2023-04-07T08:35:41;13.60;99.30
1468;DHT22;727;48.892;9.544;2023-04-07T08:38:07;13.70;98.70
1468;DHT22;727;48.892;9.544;2023-04-07T08:40:36;14.00;97.60
1468;DHT22;727;48.892;9.544;2023-04-07T08:43:05;14.20;97.00
1468;DHT22;727;48.892;9.544;2023-04-07T08:45:36;14.50;96.50
1468;DHT22;727;48.892;9.544;2023-04-07T08:48:06;14.50;95.30
1468;DHT22;727;48.892;9.544;2023-04-07T08:50:36;14.70;95.90
1468;DHT22;727;48.892;9.544;2023-04-07T08:53:06;14.90;96.00
1468;DHT22;727;48.892;9.544;2023-04-07T08:55:35;14.80;94.10
1468;DHT22;727;48.892;9.544;2023-04-07T08:58:03;14.80;93.10
1468;DHT22;727;48.892;9.544;2023-04-07T09:00:29;14.50;94.30
1468;DHT22;727;48.892;9.544;2023-04-07T09:02:59;14.50;94.00
1468;DHT22;727;48.892;9.544;2023-04-07T09:05:28;14.40;92.80
1468;DHT22;727;48.892;9.544;2023-04-07T09:07:56;14.20;92.50
1468;DHT22;727;48.892;9.544;2023-04-07T09:10:22;14.00;91.50
1468;DHT22;727;48.892;9.544;2023-04-07T09:12:50;13.50;91.20
1468;DHT22;727;48.892;9.544;2023-04-07T09:15:17;13.20;92.20
1468;DHT22;727;48.892;9.544;2023-04-07T09:17:44;13.10;92.60
1468;DHT22;727;48.892;9.544;2023-04-07T09:20:11;13.00;93.80
1468;DHT22;727;48.892;9.544;2023-04-07T09:22:39;12.90;94.40
1468;DHT22;727;48.892;9.544;2023-04-07T09:25:14;12.90;94.30
1468;DHT22;727;48.892;9.544;2023-04-07T09:27:54;12.70;94.00
1468;DHT22;727;48.892;9.544;2023-04-07T09:30:22;12.40;93.70
1468;DHT22;727;48.892;9.544;2023-04-07T09:32:49;12.20;93.60
1468;DHT22;727;48.892;9.544;2023-04-07T09:35:16;12.10;94.10
1468;DHT22;727;48.892;9.544;2023-04-07T09:37:42;12.10;94.30
1468;DHT22;727;48.892;9.544;2023-04-07T09:40:10;12.30;93.90
1468;DHT22;727;48.892;9.544;2023-04-07T09:42:44;12.50;94.20
1468;DHT22;727;48.892;9.544;2023-04-07T09:45:12;12.90;94.30
1468;DHT22;727;48.892;9.544;2023-04-07T09:47:49;13.30;93.30
1468;DHT22;727;48.892;9.544;2023-04-07T09:50:30;13.70;93.20
1468;DHT22;727;48.892;9.544;2023-04-07T09:52:58;14.00;92.30
1468;DHT22;727;48.892;9.544;2023-04-07T09:55:27;14.20;91.50
1468;DHT22;727;48.892;9.544;2023-04-07T09:57:54;14.20;90.80
1468;DHT22;727;48.892;9.544;2023-04-07T10:00:23;14.40;90.70
1468;DHT22;727;48.892;9.544;2023-04-07T10:02:50;14.40;90.80
1468;DHT22;727;48.892;9.544;2023-04-07T10:05:17;14.50;90.40
1468;DHT22;727;48.892;9.544;2023-04-07T10:07:46;14.60;90.20
1468;DHT22;727;48.892;9.544;2023-04-07T10:10:13;14.20;89.30
1468;DHT22;727;48.892;9.544;2023-04-07T10:12:40;14.00;91.20
1468;DHT22;727;48.892;9.544;2023-04-07T10:15:09;14.10;90.40
1468;DHT22;727;48.892;9.544;2023-04-07T10:17:39;14.20;90.50
1468;DHT22;727;48.892;9.544;2023-04-07T10:20:09;14.30;90.50
1468;DHT22;727;48.892;9.544;2023-04-07T10:22:37;14.40;90.10
1468;DHT22;727;48.892;9.544;2023-04-07T10:25:08;14.50;91.00
1468;DHT22;727;48.892;9.544;2023-04-07T10:27:39;14.50;90.30
1468;DHT22;727;48.892;9.544;2023-04-07T10:30:17;14.40;89.10
1468;DHT22;727;48.892;9.544;2023-04-07T10:32:49;14.30;88.60
1468;DHT22;727;48.892;9.544;2023-04-07T10:35:17;14.20;88.60
1468;DHT22;727;48.892;9.544;2023-04-07T10:38:11;14.00;89.10
1468;DHT22;727;48.892;9.544;2023-04-07T10:40:42;13.70;91.50
1468;DHT22;727;48.892;9.544;2023-04-07T10:43:09;13.90;90.50
1468;DHT22;727;48.892;9.544;2023-04-07T10:45:53;14.20;90.90
1468;DHT22;727;48.892;9.544;2023-04-07T10:48:25;14.20;90.10
1468;DHT22;727;48.892;9.544;2023-04-07T10:51:14;14.10;90.20
1468;DHT22;727;48.892;9.544;2023-04-07T10:57:09;14.60;90.90
1468;DHT22;727;48.892;9.544;2023-04-07T10:59:39;14.80;90.60
1468;DHT22;727;48.892;9.544;2023-04-07T11:02:30;14.90;89.00
1468;DHT22;727;48.892;9.544;2023-04-07T11:04:59;15.10;89.00
1468;DHT22;727;48.892;9.544;2023-04-07T11:07:47;15.20;88.70
1468;DHT22;727;48.892;9.544;2023-04-07T11:10:15;15.10;88.40
1468;DHT22;727;48.892;9.544;2023-04-07T11:12:44;15.10;88.10
1468;DHT22;727;48.892;9.544;2023-04-07T11:15:18;15.10;88.00
1468;DHT22;727;48.892;9.544;2023-04-07T11:17:45;15.10;86.80
1468;DHT22;727;48.892;9.544;2023-04-07T11:20:13;14.70;86.30
1468;DHT22;727;48.892;9.544;2023-04-07T11:22:40;14.50;88.30
1468;DHT22;727;48.892;9.544;2023-04-07T11:25:19;14.80;88.30
1468;DHT22;727;48.892;9.544;2023-04-07T11:27:47;15.30;88.10
1468;DHT22;727;48.892;9.544;2023-04-07T11:30:15;15.70;85.60
1468;DHT22;727;48.892;9.544;2023-04-07T11:32:47;16.10;84.80
1468;DHT22;727;48.892;9.544;2023-04-07T11:35:16;16.00;82.70
1468;DHT22;727;48.892;9.544;2023-04-07T11:37:42;15.90;81.80
1468;DHT22;727;48.892;9.544;2023-04-07T11:40:10;16.00;83.40
1468;DHT22;727;48.892;9.544;2023-04-07T11:42:39;16.10;82.40
1468;DHT22;727;48.892;9.544;2023-04-07T11:45:15;16.40;81.00
1468;DHT22;727;48.892;9.544;2023-04-07T11:47:42;16.30;80.10
1468;DHT22;727;48.892;9.544;2023-04-07T11:50:09;16.20;81.00
1468;DHT22;727;48.892;9.544;2023-04-07T11:52:45;16.20;80.90
1468;DHT22;727;48.892;9.544;2023-04-07T11:55:18;16.20;80.50
1468;DHT22;727;48.892;9.544;2023-04-07T11:57:45;16.00;80.10
1468;DHT22;727;48.892;9.544;2023-04-07T12:00:13;15.90;79.90
1468;DHT22;727;48.892;9.544;2023-04-07T12:02:40;16.00;83.30
1468;DHT22;727;48.892;9.544;2023-04-07T12:05:08;16.40;79.90
1468;DHT22;727;48.892;9.544;2023-04-07T12:07:35;16.90;80.50
1468;DHT22;727;48.892;9.544;2023-04-07T12:12:57;17.00;76.50
1468;DHT22;727;48.892;9.544;2023-04-07T12:15:24;17.40;75.70
1468;DHT22;727;48.892;9.544;2023-04-07T12:17:50;17.50;75.30
1468;DHT22;727;48.892;9.544;2023-04-07T12:20:17;17.40;74.40
1468;DHT22;727;48.892;9.544;2023-04-07T12:22:44;17.10;74.50
1468;DHT22;727;48.892;9.544;2023-04-07T12:25:11;17.00;76.60
1468;DHT22;727;48.892;9.544;2023-04-07T12:27:38;17.30;75.50
1468;DHT22;727;48.892;9.544;2023-04-07T12:30:08;17.70;75.10
1468;DHT22;727;48.892;9.544;2023-04-07T12:32:34;18.10;72.90
1468;DHT22;727;48.892;9.544;2023-04-07T12:35:02;18.10;72.40
1468;DHT22;727;48.892;9.544;2023-04-07T12:37:29;17.90;71.50
1468;DHT22;727;48.892;9.544;2023-04-07T12:39:57;17.80;69.80
1468;DHT22;727;48.892;9.544;2023-04-07T12:42:24;17.50;70.40
1468;DHT22;727;48.892;9.544;2023-04-07T12:44:51;16.90;72.50
1468;DHT22;727;48.892;9.544;2023-04-07T12:47:19;16.20;75.70
1468;DHT22;727;48.892;9.544;2023-04-07T12:49:46;16.00;78.20
1468;DHT22;727;48.892;9.544;2023-04-07T12:52:13;15.70;80.20
1468;DHT22;727;48.892;9.544;2023-04-07T12:54:40;15.60;80.60
1468;DHT22;727;48.892;9.544;2023-04-07T12:57:09;15.60;82.00
1468;DHT22;727;48.892;9.544;2023-04-07T12:59:36;15.50;77.70
1468;DHT22;727;48.892;9.544;2023-04-07T13:02:03;15.30;77.60
1468;DHT22;727;48.892;9.544;2023-04-07T13:04:31;15.10;78.10
1468;DHT22;727;48.892;9.544;2023-04-07T13:06:59;15.00;80.50
1468;DHT22;727;48.892;9.544;2023-04-07T13:09:27;14.90;82.30
1468;DHT22;727;48.892;9.544;2023-04-07T13:11:54;14.70;84.20
1468;DHT22;727;48.892;9.544;2023-04-07T13:14:21;14.80;84.00
1468;DHT22;727;48.892;9.544;2023-04-07T13:16:48;14.80;82.90
1468;DHT22;727;48.892;9.544;2023-04-07T13:19:15;14.70;82.60
1468;DHT22;727;48.892;9.544;2023-04-07T13:21:43;14.70;82.80
1468;DHT22;727;48.892;9.544;2023-04-07T13:24:09;14.60;82.80
1468;DHT22;727;48.892;9.544;2023-04-07T13:26:36;14.50;84.10
1468;DHT22;727;48.892;9.544;2023-04-07T13:29:03;14.40;86.20
1468;DHT22;727;48.892;9.544;2023-04-07T13:31:30;14.40;85.50
1468;DHT22;727;48.892;9.544;2023-04-07T13:33:57;14.30;86.50
1468;DHT22;727;48.892;9.544;2023-04-07T13:36:24;14.20;86.00
1468;DHT22;727;48.892;9.544;2023-04-07T13:38:53;13.90;86.60
1468;DHT22;727;48.892;9.544;2023-04-07T13:41:21;13.70;88.00
1468;DHT22;727;48.892;9.544;2023-04-07T13:43:48;13.60;89.10
1468;DHT22;727;48.892;9.544;2023-04-07T13:46:15;13.60;90.00
1468;DHT22;727;48.892;9.544;2023-04-07T13:48:42;13.40;89.70
1468;DHT22;727;48.892;9.544;2023-04-07T13:51:09;13.20;89.60
1468;DHT22;727;48.892;9.544;2023-04-07T13:53:36;13.10;89.80
1468;DHT22;727;48.892;9.544;2023-04-07T13:56:04;13.00;90.10
1468;DHT22;727;48.892;9.544;2023-04-07T13:58:33;13.00;90.70
1468;DHT22;727;48.892;9.544;2023-04-07T14:01:00;12.90;90.80
1468;DHT22;727;48.892;9.544;2023-04-07T14:03:27;12.80;91.50
1468;DHT22;727;48.892;9.544;2023-04-07T14:05:54;12.80;93.30
1468;DHT22;727;48.892;9.544;2023-04-07T14:08:25;12.70;94.50
1468;DHT22;727;48.892;9.544;2023-04-07T14:10:52;12.80;94.90
1468;DHT22;727;48.892;9.544;2023-04-07T14:13:20;12.80;95.20
1468;DHT22;727;48.892;9.544;2023-04-07T14:15:47;12.80;95.60
1468;DHT22;727;48.892;9.544;2023-04-07T14:18:15;12.90;95.60
1468;DHT22;727;48.892;9.544;2023-04-07T14:20:41;13.10;96.30
1468;DHT22;727;48.892;9.544;2023-04-07T14:23:08;13.20;95.20
1468;DHT22;727;48.892;9.544;2023-04-07T14:25:35;13.30;94.20
1468;DHT22;727;48.892;9.544;2023-04-07T14:28:01;13.40;94.70
1468;DHT22;727;48.892;9.544;2023-04-07T14:30:30;13.40;95.20
1468;DHT22;727;48.892;9.544;2023-04-07T14:32:58;13.40;94.50
1468;DHT22;727;48.892;9.544;2023-04-07T14:35:25;13.40;93.60
1468;DHT22;727;48.892;9.544;2023-04-07T14:37:52;13.40;93.30
1468;DHT22;727;48.892;9.544;2023-04-07T14:40:19;13.50;93.20
1468;DHT22;727;48.892;9.544;2023-04-07T14:42:46;13.60;92.80
1468;DHT22;727;48.892;9.544;2023-04-07T14:45:14;13.90;91.90
1468;DHT22;727;48.892;9.544;2023-04-07T14:47:43;14.20;90.90
1468;DHT22;727;48.892;9.544;2023-04-07T14:50:10;14.70;89.80
1468;DHT22;727;48.892;9.544;2023-04-07T14:52:37;14.80;89.00
1468;DHT22;727;48.892;9.544;2023-04-07T14:55:04;14.80;86.20
1468;DHT22;727;48.892;9.544;2023-04-07T14:57:32;14.90;86.10
1468;DHT22;727;48.892;9.544;2023-04-07T14:59:59;15.20;86.40
1468;DHT22;727;48.892;9.544;2023-04-07T15:02:25;15.50;84.60
1468;DHT22;727;48.892;9.544;2023-04-07T15:04:54;15.60;84.10
1468;DHT22;727;48.892;9.544;2023-04-07T15:07:21;15.60;83.60
1468;DHT22;727;48.892;9.544;2023-04-07T15:09:48;15.50;84.00
1468;DHT22;727;48.892;9.544;2023-04-07T15:12:15;15.50;83.50
1468;DHT22;727;48.892;9.544;2023-04-07T15:14:42;15.50;83.20
1468;DHT22;727;48.892;9.544;2023-04-07T15:17:09;15.20;83.50
1468;DHT22;727;48.892;9.544;2023-04-07T15:19:36;15.10;84.00
1468;DHT22;727;48.892;9.544;2023-04-07T15:22:04;14.80;83.00
1468;DHT22;727;48.892;9.544;2023-04-07T15:24:31;14.60;83.20
1468;DHT22;727;48.892;9.544;2023-04-07T15:26:57;14.60;84.20
1468;DHT22;727;48.892;9.544;2023-04-07T15:29:24;14.40;83.40
1468;DHT22;727;48.892;9.544;2023-04-07T15:31:51;14.30;85.60
1468;DHT22;727;48.892;9.544;2023-04-07T15:34:18;14.20;87.70
1468;DHT22;727;48.892;9.544;2023-04-07T15:36:45;14.00;87.60
1468;DHT22;727;48.892;9.544;2023-04-07T15:39:14;13.80;88.30
1468;DHT22;727;48.892;9.544;2023-04-07T15:41:41;13.40;89.50
1468;DHT22;727;48.892;9.544;2023-04-07T15:44:07;13.20;90.40
1468;DHT22;727;48.892;9.544;2023-04-07T15:46:34;13.00;90.70
1468;DHT22;727;48.892;9.544;2023-04-07T15:49:01;12.90;91.20
1468;DHT22;727;48.892;9.544;2023-04-07T15:51:28;12.90;91.30
1468;DHT22;727;48.892;9.544;2023-04-07T15:53:55;12.90;91.20
1468;DHT22;727;48.892;9.544;2023-04-07T15:56:23;12.90;91.40
1468;DHT22;727;48.892;9.544;2023-04-07T15:58:50;12.90;91.30
1468;DHT22;727;48.892;9.544;2023-04-07T16:01:17;12.90;91.60
1468;DHT22;727;48.892;9.544;2023-04-07T16:03:44;12.90;91.30
1468;DHT22;727;48.892;9.544;2023-04-07T16:06:11;12.80;91.30
1468;DHT22;727;48.892;9.544;2023-04-07T16:08:38;12.90;91.40
1468;DHT22;727;48.892;9.544;2023-04-07T16:11:05;12.90;91.20
1468;DHT22;727;48.892;9.544;2023-04-07T16:13:33;12.90;91.20
1468;DHT22;727;48.892;9.544;2023-04-07T16:15:59;12.90;91.10
1468;DHT22;727;48.892;9.544;2023-04-07T16:18:26;12.90;91.10
1468;DHT22;727;48.892;9.544;2023-04-07T16:20:54;12.90;91.50
1468;DHT22;727;48.892;9.544;2023-04-07T16:23:21;12.80;91.50
1468;DHT22;727;48.892;9.544;2023-04-07T16:25:48;12.80;91.70
1468;DHT22;727;48.892;9.544;2023-04-07T16:28:15;12.90;90.80
1468;DHT22;727;48.892;9.544;2023-04-07T16:30:43;12.90;90.50
1468;DHT22;727;48.892;9.544;2023-04-07T16:33:10;12.70;90.10
1468;DHT22;727;48.892;9.544;2023-04-07T16:35:37;12.70;90.60